createdAt,value
2023-01-22T00:01:21.330Z,-2.60
2023-01-22T00:03:50.345Z,-2.60
2023-01-22T00:06:18.996Z,-2.60
2023-01-22T00:08:48.544Z,-2.60
2023-01-22T00:11:19.612Z,-2.60
2023-01-22T00:13:48.560Z,-2.60
2023-01-22T00:16:18.583Z,-2.60
2023-01-22T00:18:47.173Z,-2.60
2023-01-22T00:21:15.722Z,-2.60
2023-01-22T00:23:44.367Z,-2.60
2023-01-22T00:26:15.555Z,-2.50
2023-01-22T00:28:48.000Z,-2.50
2023-01-22T00:31:17.609Z,-2.50
2023-01-22T00:33:47.768Z,-2.50
2023-01-22T00:36:18.792Z,-2.50
2023-01-22T00:38:50.034Z,-2.50
2023-01-22T00:41:19.923Z,-2.40
2023-01-22T00:43:52.788Z,-2.40
2023-01-22T00:46:21.993Z,-2.40
2023-01-22T00:48:51.218Z,-2.40
2023-01-22T00:51:20.317Z,-2.40
2023-01-22T00:53:48.979Z,-2.40
2023-01-22T00:56:18.063Z,-2.50
2023-01-22T00:58:46.912Z,-2.50
2023-01-22T01:01:18.002Z,-2.50
2023-01-22T01:03:46.599Z,-2.50
2023-01-22T01:06:17.394Z,-2.50
2023-01-22T01:08:48.561Z,-2.50
2023-01-22T01:11:17.689Z,-2.50
2023-01-22T01:13:46.683Z,-2.50
2023-01-22T01:16:18.935Z,-2.50
2023-01-22T01:18:48.333Z,-2.50
2023-01-22T01:21:17.285Z,-2.50
2023-01-22T01:23:46.508Z,-2.50
2023-01-22T01:26:17.519Z,-2.60
2023-01-22T01:28:46.625Z,-2.50
2023-01-22T01:31:17.876Z,-2.60
2023-01-22T01:33:47.138Z,-2.60
2023-01-22T01:36:21.256Z,-2.60
2023-01-22T01:38:56.321Z,-2.60
2023-01-22T01:41:27.450Z,-2.60
2023-01-22T01:44:10.141Z,-2.60
2023-01-22T01:46:44.283Z,-2.60
2023-01-22T01:49:20.881Z,-2.50
2023-01-22T01:51:50.429Z,-2.60
2023-01-22T01:54:19.967Z,-2.60
2023-01-22T01:56:52.077Z,-2.60
2023-01-22T01:59:22.630Z,-2.60
2023-01-22T02:01:55.673Z,-2.60
2023-01-22T02:04:25.362Z,-2.60
2023-01-22T02:06:55.644Z,-2.60
2023-01-22T02:09:24.835Z,-2.60
2023-01-22T02:11:54.451Z,-2.60
2023-01-22T02:14:27.969Z,-2.60
2023-01-22T02:17:09.126Z,-2.60
2023-01-22T02:19:37.793Z,-2.60
2023-01-22T02:22:13.644Z,-2.60
2023-01-22T02:24:42.352Z,-2.60
2023-01-22T02:27:11.539Z,-2.60
2023-01-22T02:29:40.593Z,-2.60
2023-01-22T02:32:11.835Z,-2.70
2023-01-22T02:34:40.392Z,-2.60
2023-01-22T02:37:09.081Z,-2.60
2023-01-22T02:39:39.153Z,-2.60
2023-01-22T02:42:10.091Z,-2.70
2023-01-22T02:44:39.871Z,-2.60
2023-01-22T02:47:08.638Z,-2.70
2023-01-22T02:49:37.224Z,-2.70
2023-01-22T02:52:06.511Z,-2.70
2023-01-22T02:54:36.125Z,-2.80
2023-01-22T02:57:06.155Z,-2.80
2023-01-22T02:59:36.056Z,-2.80
2023-01-22T03:02:05.009Z,-2.80
2023-01-22T03:04:35.135Z,-2.80
2023-01-22T03:07:04.360Z,-2.80
2023-01-22T03:09:33.677Z,-2.80
2023-01-22T03:12:03.297Z,-2.90
2023-01-22T03:14:53.374Z,-2.90
2023-01-22T03:17:39.502Z,-2.90
2023-01-22T03:20:26.950Z,-2.90
2023-01-22T03:22:55.874Z,-3.00
2023-01-22T03:25:24.437Z,-3.00
2023-01-22T03:28:18.810Z,-3.00
2023-01-22T03:30:56.660Z,-3.00
2023-01-22T03:33:25.713Z,-3.00
2023-01-22T03:35:54.505Z,-3.10
2023-01-22T03:38:23.071Z,-3.10
2023-01-22T03:40:51.648Z,-3.10
2023-01-22T03:43:22.480Z,-3.20
2023-01-22T03:45:51.032Z,-3.20
2023-01-22T03:48:23.038Z,-3.20
2023-01-22T03:50:51.691Z,-3.20
2023-01-22T03:53:20.237Z,-3.30
2023-01-22T03:55:58.991Z,-3.30
2023-01-22T03:58:28.161Z,-3.30
2023-01-22T04:00:57.956Z,-3.30
2023-01-22T04:03:29.654Z,-3.30
2023-01-22T04:06:00.505Z,-3.40
2023-01-22T04:08:31.272Z,-3.40
2023-01-22T04:11:01.913Z,-3.40
2023-01-22T04:13:32.645Z,-3.40
2023-01-22T04:16:02.168Z,-3.40
2023-01-22T04:18:50.773Z,-3.40
2023-01-22T04:21:39.671Z,-3.40
2023-01-22T04:24:11.332Z,-3.40
2023-01-22T04:26:40.060Z,-3.40
2023-01-22T04:29:10.028Z,-3.50
2023-01-22T04:31:38.497Z,-3.50
2023-01-22T04:34:08.555Z,-3.50
2023-01-22T04:36:44.353Z,-3.50
2023-01-22T04:39:12.951Z,-3.50
2023-01-22T04:41:41.501Z,-3.50
2023-01-22T04:44:10.333Z,-3.50
2023-01-22T04:46:38.973Z,-3.50
2023-01-22T04:49:09.068Z,-3.60
2023-01-22T04:51:37.937Z,-3.60
2023-01-22T04:54:06.871Z,-3.60
2023-01-22T04:56:35.452Z,-3.60
2023-01-22T04:59:04.801Z,-3.60
2023-01-22T05:01:33.522Z,-3.60
2023-01-22T05:04:02.911Z,-3.70
2023-01-22T05:06:35.928Z,-3.70
2023-01-22T05:09:05.593Z,-3.70
2023-01-22T05:11:47.342Z,-3.70
2023-01-22T05:14:16.147Z,-3.70
2023-01-22T05:16:47.161Z,-3.70
2023-01-22T05:19:17.015Z,-3.70
2023-01-22T05:21:47.669Z,-3.70
2023-01-22T05:24:19.179Z,-3.80
2023-01-22T05:26:48.082Z,-3.80
2023-01-22T05:29:42.665Z,-3.80
2023-01-22T05:32:32.702Z,-3.80
2023-01-22T05:35:02.640Z,-3.80
2023-01-22T05:37:34.512Z,-3.80
2023-01-22T05:40:05.460Z,-3.80
2023-01-22T05:42:36.351Z,-3.80
2023-01-22T05:45:07.711Z,-3.80
2023-01-22T05:47:42.022Z,-3.80
2023-01-22T05:50:30.499Z,-3.90
2023-01-22T05:53:07.771Z,-3.90
2023-01-22T05:55:36.463Z,-3.80
2023-01-22T05:58:06.476Z,-3.80
2023-01-22T06:00:36.606Z,-3.80
2023-01-22T06:03:08.597Z,-3.80
2023-01-22T06:05:46.174Z,-3.90
2023-01-22T06:08:16.185Z,-3.80
2023-01-22T06:10:51.663Z,-3.80
2023-01-22T06:13:20.989Z,-3.80
2023-01-22T06:15:54.569Z,-3.80
2023-01-22T06:18:43.054Z,-3.80
2023-01-22T06:21:14.063Z,-3.80
2023-01-22T06:23:44.212Z,-3.80
2023-01-22T06:26:13.288Z,-3.80
2023-01-22T06:28:43.848Z,-3.80
2023-01-22T06:31:13.115Z,-3.80
2023-01-22T06:33:42.503Z,-3.80
2023-01-22T06:36:11.347Z,-3.80
2023-01-22T06:38:39.882Z,-3.80
2023-01-22T06:41:12.525Z,-3.80
2023-01-22T06:43:41.231Z,-3.80
2023-01-22T06:46:10.448Z,-3.80
2023-01-22T06:49:02.770Z,-3.80
2023-01-22T06:51:32.076Z,-3.80
2023-01-22T06:54:01.054Z,-3.70
2023-01-22T06:56:31.437Z,-3.70
2023-01-22T06:59:02.277Z,-3.70
2023-01-22T07:01:30.825Z,-3.70
2023-01-22T07:03:59.466Z,-3.70
2023-01-22T07:06:28.061Z,-3.70
2023-01-22T07:08:57.345Z,-3.70
2023-01-22T07:11:25.933Z,-3.70
2023-01-22T07:13:55.902Z,-3.80
2023-01-22T07:16:24.463Z,-3.70
2023-01-22T07:18:53.074Z,-3.80
2023-01-22T07:21:21.618Z,-3.70
2023-01-22T07:23:50.236Z,-3.70
2023-01-22T07:26:18.743Z,-3.70
2023-01-22T07:28:47.381Z,-3.70
2023-01-22T07:31:17.389Z,-3.70
2023-01-22T07:33:45.977Z,-3.70
2023-01-22T07:36:14.587Z,-3.80
2023-01-22T07:38:43.287Z,-3.70
2023-01-22T07:41:25.231Z,-3.70
2023-01-22T07:43:57.108Z,-3.70
2023-01-22T07:46:27.256Z,-3.70
2023-01-22T07:48:56.031Z,-3.70
2023-01-22T07:51:24.698Z,-3.60
2023-01-22T07:53:53.476Z,-3.60
2023-01-22T07:56:22.059Z,-3.60
2023-01-22T07:58:50.725Z,-3.60
2023-01-22T08:01:19.218Z,-3.60
2023-01-22T08:03:49.252Z,-3.50
2023-01-22T08:06:21.591Z,-3.50
2023-01-22T08:08:50.353Z,-3.50
2023-01-22T08:11:19.017Z,-3.50
2023-01-22T08:13:47.630Z,-3.50
2023-01-22T08:16:16.296Z,-3.50
2023-01-22T08:18:44.978Z,-3.50
2023-01-22T08:21:15.048Z,-3.60
2023-01-22T08:23:46.624Z,-3.60
2023-01-22T08:26:16.813Z,-3.60
2023-01-22T08:28:45.489Z,-3.60
2023-01-22T08:31:26.861Z,-3.50
2023-01-22T08:33:55.840Z,-3.60
2023-01-22T08:36:25.984Z,-3.50
2023-01-22T08:38:54.595Z,-3.50
2023-01-22T08:41:23.512Z,-3.50
2023-01-22T08:43:53.578Z,-3.50
2023-01-22T08:46:22.252Z,-3.40
2023-01-22T08:48:50.971Z,-3.40
2023-01-22T08:51:19.642Z,-3.40
2023-01-22T08:53:49.709Z,-3.30
2023-01-22T08:56:18.367Z,-3.30
2023-01-22T08:58:50.185Z,-3.30
2023-01-22T09:01:19.800Z,-3.30
2023-01-22T09:03:49.470Z,-3.20
2023-01-22T09:06:18.331Z,-3.20
2023-01-22T09:08:48.351Z,-3.30
2023-01-22T09:11:16.876Z,-3.30
2023-01-22T09:13:45.645Z,-3.20
2023-01-22T09:16:14.224Z,-3.20
2023-01-22T09:18:43.219Z,-3.20
2023-01-22T09:21:11.771Z,-3.20
2023-01-22T09:23:40.359Z,-3.10
2023-01-22T09:26:10.402Z,-3.10
2023-01-22T09:28:39.138Z,-3.10
2023-01-22T09:31:07.709Z,-3.00
2023-01-22T09:33:36.351Z,-3.00
2023-01-22T09:36:09.874Z,-3.00
2023-01-22T09:38:38.551Z,-3.00
2023-01-22T09:41:17.812Z,-3.00
2023-01-22T09:43:51.938Z,-3.00
2023-01-22T09:46:26.490Z,-3.00
2023-01-22T09:48:58.737Z,-2.90
2023-01-22T09:51:27.514Z,-2.90
2023-01-22T09:53:59.622Z,-2.90
2023-01-22T09:56:37.394Z,-2.90
2023-01-22T09:59:08.992Z,-2.90
2023-01-22T10:01:38.492Z,-2.80
2023-01-22T10:04:20.217Z,-2.70
2023-01-22T10:06:50.387Z,-2.70
2023-01-22T10:09:21.893Z,-2.70
2023-01-22T10:11:54.410Z,-2.60
2023-01-22T10:14:27.036Z,-2.60
2023-01-22T10:16:56.958Z,-2.60
2023-01-22T10:19:29.181Z,-2.60
2023-01-22T10:22:01.919Z,-2.60
2023-01-22T10:24:30.515Z,-2.50
2023-01-22T10:27:12.716Z,-2.50
2023-01-22T10:29:41.474Z,-2.50
2023-01-22T10:32:21.724Z,-2.50
2023-01-22T10:35:01.366Z,-2.50
2023-01-22T10:37:30.751Z,-2.40
2023-01-22T10:40:01.167Z,-2.40
2023-01-22T10:42:31.399Z,-2.40
2023-01-22T10:45:16.392Z,-2.40
2023-01-22T10:47:44.969Z,-2.40
2023-01-22T10:50:16.733Z,-2.40
2023-01-22T10:52:50.498Z,-2.40
2023-01-22T10:55:24.183Z,-2.40
2023-01-22T10:58:02.947Z,-2.40
2023-01-22T11:00:50.322Z,-2.40
2023-01-22T11:03:23.650Z,-2.40
2023-01-22T11:05:58.016Z,-2.30
2023-01-22T11:08:31.000Z,-2.30
2023-01-22T11:11:03.543Z,-2.20
2023-01-22T11:13:42.376Z,-2.20
2023-01-22T11:16:16.423Z,-2.20
2023-01-22T11:18:49.298Z,-2.20
2023-01-22T11:21:20.855Z,-2.20
2023-01-22T11:23:55.304Z,-2.20
2023-01-22T11:26:33.800Z,-2.10
2023-01-22T11:29:13.532Z,-2.20
2023-01-22T11:31:55.697Z,-2.10
2023-01-22T11:34:56.001Z,-2.10
2023-01-22T11:37:45.829Z,-2.10
2023-01-22T11:40:21.394Z,-2.20
2023-01-22T11:43:22.321Z,-2.20
2023-01-22T11:46:10.775Z,-2.20
2023-01-22T11:48:49.258Z,-2.20
2023-01-22T11:51:25.372Z,-2.20
2023-01-22T11:54:05.729Z,-2.30
2023-01-22T11:56:59.801Z,-2.20
2023-01-22T11:59:38.671Z,-2.30
2023-01-22T12:02:24.339Z,-2.20
2023-01-22T12:05:12.343Z,-2.10
2023-01-22T12:08:13.034Z,-2.10
2023-01-22T12:11:04.630Z,-2.00
2023-01-22T12:14:10.691Z,-2.00
2023-01-22T12:16:46.650Z,-1.90
2023-01-22T12:19:32.658Z,-1.90
2023-01-22T12:22:08.405Z,-1.90
2023-01-22T12:24:42.761Z,-1.90
2023-01-22T12:27:17.544Z,-1.90
2023-01-22T12:29:52.964Z,-1.90
2023-01-22T12:32:24.289Z,-1.80
2023-01-22T12:34:59.263Z,-1.80
2023-01-22T12:37:38.788Z,-1.80
2023-01-22T12:40:27.778Z,-1.70
2023-01-22T12:43:02.111Z,-1.70
2023-01-22T12:45:41.781Z,-1.70
2023-01-22T12:48:22.397Z,-1.70
2023-01-22T12:50:54.356Z,-1.70
2023-01-22T12:53:26.103Z,-1.60
2023-01-22T12:56:03.907Z,-1.60
2023-01-22T12:58:36.162Z,-1.60
2023-01-22T13:01:08.514Z,-1.60
2023-01-22T13:03:38.101Z,-1.60
2023-01-22T13:06:22.648Z,-1.60
2023-01-22T13:08:51.290Z,-1.60
2023-01-22T13:11:31.420Z,-1.60
2023-01-22T13:14:15.196Z,-1.60
2023-01-22T13:16:53.729Z,-1.60
2023-01-22T13:19:25.216Z,-1.60
2023-01-22T13:21:58.017Z,-1.60
2023-01-22T13:24:26.694Z,-1.60
2023-01-22T13:27:00.127Z,-1.60
2023-01-22T13:29:32.995Z,-1.60
2023-01-22T13:32:03.936Z,-1.60
2023-01-22T13:34:33.282Z,-1.60
2023-01-22T13:37:03.300Z,-1.50
2023-01-22T13:39:33.947Z,-1.50
2023-01-22T13:42:05.113Z,-1.50
2023-01-22T13:44:36.110Z,-1.60
2023-01-22T13:47:05.241Z,-1.60
2023-01-22T13:49:36.813Z,-1.60
2023-01-22T13:52:15.289Z,-1.60
2023-01-22T13:54:47.703Z,-1.60
2023-01-22T13:57:23.567Z,-1.50
2023-01-22T13:59:55.987Z,-1.60
2023-01-22T14:02:25.954Z,-1.60
2023-01-22T14:04:54.260Z,-1.50
2023-01-22T14:07:30.109Z,-1.60
2023-01-22T14:10:11.680Z,-1.50
2023-01-22T14:12:40.315Z,-1.50
2023-01-22T14:15:16.447Z,-1.60
2023-01-22T14:17:45.415Z,-1.60
2023-01-22T14:20:14.623Z,-1.60
2023-01-22T14:22:44.756Z,-1.50
2023-01-22T14:25:13.568Z,-1.50
2023-01-22T14:27:44.399Z,-1.50
2023-01-22T14:30:15.819Z,-1.50
2023-01-22T14:32:45.322Z,-1.50
2023-01-22T14:35:18.170Z,-1.60
2023-01-22T14:37:48.600Z,-1.50
2023-01-22T14:40:19.088Z,-1.50
2023-01-22T14:42:48.022Z,-1.50
2023-01-22T14:45:18.267Z,-1.50
2023-01-22T14:47:51.115Z,-1.50
2023-01-22T14:50:20.865Z,-1.40
2023-01-22T14:52:52.247Z,-1.50
2023-01-22T14:55:21.239Z,-1.50
2023-01-22T14:57:49.776Z,-1.50
2023-01-22T15:00:20.398Z,-1.50
2023-01-22T15:02:49.142Z,-1.50
2023-01-22T15:05:18.053Z,-1.50
2023-01-22T15:07:46.572Z,-1.50
2023-01-22T15:10:17.028Z,-1.50
2023-01-22T15:12:48.774Z,-1.50
2023-01-22T15:15:18.868Z,-1.50
2023-01-22T15:17:47.495Z,-1.50
2023-01-22T15:20:16.414Z,-1.40
2023-01-22T15:22:45.581Z,-1.40
2023-01-22T15:25:15.635Z,-1.40
2023-01-22T15:27:44.713Z,-1.40
2023-01-22T15:30:14.404Z,-1.40
2023-01-22T15:32:43.135Z,-1.40
2023-01-22T15:35:12.524Z,-1.40
2023-01-22T15:37:41.105Z,-1.40
2023-01-22T15:40:11.082Z,-1.40
2023-01-22T15:42:41.043Z,-1.40
2023-01-22T15:45:10.563Z,-1.50
2023-01-22T15:47:39.112Z,-1.40
2023-01-22T15:50:08.551Z,-1.40
2023-01-22T15:52:37.123Z,-1.40
2023-01-22T15:55:06.571Z,-1.40
2023-01-22T15:57:35.146Z,-1.40
2023-01-22T16:00:06.332Z,-1.40
2023-01-22T16:02:40.806Z,-1.40
2023-01-22T16:05:10.065Z,-1.40
2023-01-22T16:07:38.597Z,-1.40
2023-01-22T16:10:07.768Z,-1.40
2023-01-22T16:12:36.328Z,-1.40
2023-01-22T16:15:07.317Z,-1.40
2023-01-22T16:17:35.998Z,-1.40
2023-01-22T16:20:05.479Z,-1.40
2023-01-22T16:22:34.044Z,-1.40
2023-01-22T16:25:02.656Z,-1.30
2023-01-22T16:27:31.285Z,-1.40
2023-01-22T16:30:00.774Z,-1.40
2023-01-22T16:32:30.738Z,-1.40
2023-01-22T16:34:59.335Z,-1.40
2023-01-22T16:37:28.013Z,-1.30
2023-01-22T16:39:56.527Z,-1.30
2023-01-22T16:42:25.095Z,-1.30
2023-01-22T16:44:53.646Z,-1.30
2023-01-22T16:47:22.242Z,-1.30
2023-01-22T16:49:52.223Z,-1.30
2023-01-22T16:52:22.735Z,-1.30
2023-01-22T16:54:52.165Z,-1.30
2023-01-22T16:57:20.717Z,-1.30
2023-01-22T16:59:49.396Z,-1.30
2023-01-22T17:02:19.321Z,-1.30
2023-01-22T17:04:48.397Z,-1.30
2023-01-22T17:07:32.853Z,-1.20
2023-01-22T17:10:03.038Z,-1.20
2023-01-22T17:12:31.699Z,-1.20
2023-01-22T17:15:00.764Z,-1.20
2023-01-22T17:17:29.559Z,-1.20
2023-01-22T17:19:58.215Z,-1.20
2023-01-22T17:22:28.149Z,-1.20
2023-01-22T17:24:57.008Z,-1.20
2023-01-22T17:27:26.024Z,-1.20
2023-01-22T17:29:54.932Z,-1.20
2023-01-22T17:32:23.608Z,-1.20
2023-01-22T17:34:52.500Z,-1.20
2023-01-22T17:37:21.417Z,-1.20
2023-01-22T17:39:52.735Z,-1.20
2023-01-22T17:42:21.762Z,-1.20
2023-01-22T17:44:53.882Z,-1.30
2023-01-22T17:47:22.563Z,-1.30
2023-01-22T17:49:52.000Z,-1.30
2023-01-22T17:52:23.576Z,-1.30
2023-01-22T17:54:54.521Z,-1.30
2023-01-22T17:57:23.323Z,-1.30
2023-01-22T17:59:52.846Z,-1.20
2023-01-22T18:02:21.950Z,-1.30
2023-01-22T18:04:52.137Z,-1.30
2023-01-22T18:07:21.223Z,-1.30
2023-01-22T18:09:52.380Z,-1.30
2023-01-22T18:12:22.208Z,-1.20
2023-01-22T18:14:50.613Z,-1.20
2023-01-22T18:17:19.293Z,-1.30
2023-01-22T18:19:47.959Z,-1.30
2023-01-22T18:22:16.686Z,-1.30
2023-01-22T18:24:45.619Z,-1.30
2023-01-22T18:27:16.667Z,-1.30
2023-01-22T18:29:45.499Z,-1.30
2023-01-22T18:32:14.005Z,-1.30
2023-01-22T18:34:42.576Z,-1.30
2023-01-22T18:37:12.085Z,-1.30
2023-01-22T18:39:41.836Z,-1.30
2023-01-22T18:42:10.838Z,-1.30
2023-01-22T18:44:42.764Z,-1.30
2023-01-22T18:47:15.115Z,-1.40
2023-01-22T18:49:44.157Z,-1.40
2023-01-22T18:52:12.961Z,-1.40
2023-01-22T18:54:41.633Z,-1.40
2023-01-22T18:57:10.187Z,-1.40
2023-01-22T18:59:38.886Z,-1.40
2023-01-22T19:02:12.529Z,-1.40
2023-01-22T19:04:41.158Z,-1.40
2023-01-22T19:07:10.084Z,-1.40
2023-01-22T19:09:40.122Z,-1.40
2023-01-22T19:12:12.281Z,-1.40
2023-01-22T19:14:41.891Z,-1.40
2023-01-22T19:17:14.322Z,-1.40
2023-01-22T19:19:43.137Z,-1.40
2023-01-22T19:22:11.961Z,-1.40
2023-01-22T19:24:43.726Z,-1.40
2023-01-22T19:27:13.105Z,-1.40
2023-01-22T19:29:43.571Z,-1.40
2023-01-22T19:32:17.091Z,-1.40
2023-01-22T19:34:46.446Z,-1.40
2023-01-22T19:37:15.253Z,-1.40
2023-01-22T19:39:44.161Z,-1.40
2023-01-22T19:42:12.988Z,-1.40
2023-01-22T19:44:43.035Z,-1.40
2023-01-22T19:47:14.028Z,-1.40
2023-01-22T19:49:43.440Z,-1.40
2023-01-22T19:52:13.446Z,-1.30
2023-01-22T19:54:47.444Z,-1.30
2023-01-22T19:57:16.843Z,-1.30
2023-01-22T19:59:48.085Z,-1.30
2023-01-22T20:02:20.851Z,-1.30
2023-01-22T20:04:49.574Z,-1.30
2023-01-22T20:07:18.981Z,-1.30
2023-01-22T20:09:47.943Z,-1.30
2023-01-22T20:12:16.794Z,-1.30
2023-01-22T20:14:45.634Z,-1.40
2023-01-22T20:17:15.760Z,-1.40
2023-01-22T20:19:45.851Z,-1.40
2023-01-22T20:22:15.472Z,-1.40
2023-01-22T20:24:44.211Z,-1.40
2023-01-22T20:27:12.982Z,-1.40
2023-01-22T20:29:42.064Z,-1.40
2023-01-22T20:32:10.754Z,-1.40
2023-01-22T20:34:42.141Z,-1.40
2023-01-22T20:37:12.722Z,-1.40
2023-01-22T20:39:42.597Z,-1.50
2023-01-22T20:42:10.890Z,-1.50
2023-01-22T20:44:39.662Z,-1.50
2023-01-22T20:47:08.328Z,-1.50
2023-01-22T20:49:37.250Z,-1.50
2023-01-22T20:52:06.543Z,-1.50
2023-01-22T20:54:45.921Z,-1.60
2023-01-22T20:57:24.188Z,-1.50
2023-01-22T20:59:54.550Z,-1.50
2023-01-22T21:02:24.640Z,-1.50
2023-01-22T21:04:56.887Z,-1.50
2023-01-22T21:07:28.199Z,-1.50
2023-01-22T21:09:59.824Z,-1.40
2023-01-22T21:12:29.386Z,-1.40
2023-01-22T21:14:58.476Z,-1.40
2023-01-22T21:17:27.605Z,-1.30
2023-01-22T21:19:56.616Z,-1.30
2023-01-22T21:22:25.341Z,-1.30
2023-01-22T21:24:53.880Z,-1.30
2023-01-22T21:27:23.916Z,-1.30
2023-01-22T21:29:52.666Z,-1.30
2023-01-22T21:32:21.274Z,-1.30
2023-01-22T21:34:49.881Z,-1.30
2023-01-22T21:37:18.627Z,-1.30
2023-01-22T21:39:47.225Z,-1.30
2023-01-22T21:42:33.116Z,-1.30
2023-01-22T21:45:20.794Z,-1.30
2023-01-22T21:47:49.370Z,-1.30
2023-01-22T21:50:18.388Z,-1.30
2023-01-22T21:52:49.012Z,-1.30
2023-01-22T21:55:17.933Z,-1.30
2023-01-22T21:57:46.458Z,-1.20
2023-01-22T22:00:19.714Z,-1.20
2023-01-22T22:02:48.637Z,-1.20
2023-01-22T22:05:17.245Z,-1.20
2023-01-22T22:07:46.039Z,-1.20
2023-01-22T22:10:15.272Z,-1.20
2023-01-22T22:12:44.080Z,-1.30
2023-01-22T22:15:12.808Z,-1.20
2023-01-22T22:17:44.875Z,-1.30
2023-01-22T22:20:14.013Z,-1.20
2023-01-22T22:22:42.514Z,-1.30
2023-01-22T22:25:11.544Z,-1.20
2023-01-22T22:27:40.132Z,-1.20
2023-01-22T22:30:10.260Z,-1.20
2023-01-22T22:32:38.843Z,-1.20
2023-01-22T22:35:10.339Z,-1.20
2023-01-22T22:37:38.916Z,-1.20
2023-01-22T22:40:08.842Z,-1.20
2023-01-22T22:42:37.531Z,-1.30
2023-01-22T22:45:07.048Z,-1.30
2023-01-22T22:47:37.621Z,-1.30
2023-01-22T22:50:09.110Z,-1.30
2023-01-22T22:52:38.278Z,-1.30
2023-01-22T22:55:08.128Z,-1.30
2023-01-22T22:57:36.761Z,-1.30
2023-01-22T23:00:11.998Z,-1.30
2023-01-22T23:02:40.602Z,-1.30
2023-01-22T23:05:11.207Z,-1.20
2023-01-22T23:07:39.787Z,-1.20
2023-01-22T23:10:28.764Z,-1.20
2023-01-22T23:12:59.296Z,-1.20
2023-01-22T23:15:30.179Z,-1.20
2023-01-22T23:18:00.204Z,-1.20
2023-01-22T23:20:30.663Z,-1.20
2023-01-22T23:23:00.265Z,-1.20
2023-01-22T23:25:28.959Z,-1.20
2023-01-22T23:27:57.544Z,-1.20
2023-01-22T23:30:27.055Z,-1.20
2023-01-22T23:32:55.631Z,-1.20
2023-01-22T23:35:24.154Z,-1.20
2023-01-22T23:37:54.979Z,-1.20
2023-01-22T23:40:23.791Z,-1.20
2023-01-22T23:42:52.478Z,-1.20
2023-01-22T23:45:21.099Z,-1.20
2023-01-22T23:47:49.612Z,-1.10
2023-01-22T23:50:18.629Z,-1.10
2023-01-22T23:52:47.833Z,-1.20
2023-01-22T23:55:17.895Z,-1.20
2023-01-22T23:57:46.438Z,-1.20
